createdAt,value
2023-04-10T00:00:13.530Z,23.45
2023-04-10T00:01:13.545Z,23.46
2023-04-10T00:02:13.687Z,23.43
2023-04-10T00:03:13.833Z,23.47
2023-04-10T00:04:13.708Z,23.43
2023-04-10T00:05:13.684Z,23.43
2023-04-10T00:06:13.662Z,23.43
2023-04-10T00:07:13.723Z,23.47
2023-04-10T00:08:13.712Z,23.43
2023-04-10T00:09:13.719Z,23.42
2023-04-10T00:10:13.737Z,23.44
2023-04-10T00:11:13.844Z,23.43
2023-04-10T00:12:13.862Z,23.47
2023-04-10T00:13:13.851Z,23.46
2023-04-10T00:14:13.943Z,23.47
2023-04-10T00:15:13.933Z,23.43
2023-04-10T00:16:13.958Z,23.44
2023-04-10T00:17:13.957Z,23.47
2023-04-10T00:18:14.177Z,23.48
2023-04-10T00:19:13.995Z,23.50
2023-04-10T00:20:14.000Z,23.47
2023-04-10T00:21:14.079Z,23.46
2023-04-10T00:22:14.080Z,23.48
2023-04-10T00:23:14.137Z,23.50
2023-04-10T00:24:14.179Z,23.48
2023-04-10T00:25:14.164Z,23.48
2023-04-10T00:26:14.221Z,23.48
2023-04-10T00:27:14.224Z,23.50
2023-04-10T00:28:14.263Z,23.47
2023-04-10T00:29:14.271Z,23.47
2023-04-10T00:30:14.352Z,23.44
2023-04-10T00:31:14.350Z,23.47
2023-04-10T00:32:14.372Z,23.48
2023-04-10T00:33:14.408Z,23.51
2023-04-10T00:34:14.403Z,23.50
2023-04-10T00:35:14.473Z,23.51
2023-04-10T00:36:14.501Z,23.48
2023-04-10T00:37:14.540Z,23.48
2023-04-10T00:38:14.538Z,23.46
2023-04-10T00:39:14.617Z,23.48
2023-04-10T00:40:14.608Z,23.47
2023-04-10T00:41:14.664Z,23.51
2023-04-10T00:42:14.672Z,23.48
2023-04-10T00:43:14.865Z,23.49
2023-04-10T00:44:14.738Z,23.49
2023-04-10T00:45:14.739Z,23.51
2023-04-10T00:46:14.870Z,23.49
2023-04-10T00:47:14.849Z,23.49
2023-04-10T00:48:14.873Z,23.51
2023-04-10T00:49:14.912Z,23.50
2023-04-10T00:50:14.919Z,23.52
2023-04-10T00:51:14.995Z,23.51
2023-04-10T00:52:15.005Z,23.49
2023-04-10T00:53:15.129Z,23.49
2023-04-10T00:54:15.064Z,23.48
2023-04-10T00:55:15.131Z,23.48
2023-04-10T00:56:15.134Z,23.49
2023-04-10T00:57:15.185Z,23.52
2023-04-10T00:58:15.291Z,23.54
2023-04-10T00:59:15.258Z,23.49
2023-04-10T01:00:15.297Z,23.49
2023-04-10T01:01:15.359Z,23.54
2023-04-10T01:02:15.562Z,23.55
2023-04-10T01:03:15.589Z,23.58
2023-04-10T01:04:15.529Z,23.56
2023-04-10T01:05:15.440Z,23.54
2023-04-10T01:06:15.612Z,23.51
2023-04-10T01:07:15.579Z,23.55
2023-04-10T01:08:15.578Z,23.54
2023-04-10T01:09:15.571Z,23.56
2023-04-10T01:10:15.693Z,23.52
2023-04-10T01:11:15.636Z,23.51
2023-04-10T01:12:15.706Z,23.52
2023-04-10T01:13:15.778Z,23.56
2023-04-10T01:14:15.779Z,23.54
2023-04-10T01:15:15.793Z,23.57
2023-04-10T01:16:15.820Z,23.51
2023-04-10T01:17:15.850Z,23.57
2023-04-10T01:18:15.908Z,23.55
2023-04-10T01:19:15.945Z,23.57
2023-04-10T01:20:16.010Z,23.51
2023-04-10T01:21:16.023Z,23.60
2023-04-10T01:22:16.107Z,23.57
2023-04-10T01:23:16.032Z,23.56
2023-04-10T01:24:16.110Z,23.56
2023-04-10T01:25:16.151Z,23.53
2023-04-10T01:26:16.228Z,23.56
2023-04-10T01:27:16.269Z,23.54
2023-04-10T01:28:16.278Z,23.57
2023-04-10T01:29:16.301Z,23.59
2023-04-10T01:30:16.390Z,23.54
2023-04-10T01:31:16.408Z,23.57
2023-04-10T01:32:16.399Z,23.56
2023-04-10T01:33:16.412Z,23.60
2023-04-10T01:34:16.612Z,23.53
2023-04-10T01:35:16.530Z,23.56
2023-04-10T01:36:16.600Z,23.62
2023-04-10T01:37:16.640Z,23.60
2023-04-10T01:38:16.725Z,23.59
2023-04-10T01:39:16.712Z,23.54
2023-04-10T01:40:16.877Z,23.59
2023-04-10T01:41:16.770Z,23.60
2023-04-10T01:42:16.833Z,23.59
2023-04-10T01:43:16.905Z,23.60
2023-04-10T01:44:16.897Z,23.63
2023-04-10T01:45:16.926Z,23.57
2023-04-10T01:46:16.987Z,23.59
2023-04-10T01:47:17.013Z,23.60
2023-04-10T01:48:17.130Z,23.62
2023-04-10T01:49:17.098Z,23.60
2023-04-10T01:50:17.149Z,23.61
2023-04-10T01:51:17.161Z,23.58
2023-04-10T01:52:17.222Z,23.63
2023-04-10T01:53:17.321Z,23.63
2023-04-10T01:54:17.347Z,23.63
2023-04-10T01:55:17.395Z,23.59
2023-04-10T01:56:17.395Z,23.57
2023-04-10T01:57:17.499Z,23.57
2023-04-10T01:58:17.539Z,23.61
2023-04-10T01:59:17.565Z,23.65
2023-04-10T02:00:17.817Z,23.61
2023-04-10T02:01:28.423Z,23.61
2023-04-10T02:02:18.756Z,23.58
2023-04-10T02:03:17.875Z,23.65
2023-04-10T02:04:17.735Z,23.64
2023-04-10T02:05:17.651Z,23.61
2023-04-10T02:06:17.588Z,23.64
2023-04-10T02:07:17.645Z,23.64
2023-04-10T02:08:17.635Z,23.67
2023-04-10T02:09:17.599Z,23.65
2023-04-10T02:10:17.581Z,23.59
2023-04-10T02:11:17.596Z,23.64
2023-04-10T02:12:17.575Z,23.68
2023-04-10T02:13:17.608Z,23.64
2023-04-10T02:14:17.727Z,23.65
2023-04-10T02:15:17.638Z,23.65
2023-04-10T02:16:17.813Z,23.64
2023-04-10T02:17:17.792Z,23.64
2023-04-10T02:18:17.854Z,23.64
2023-04-10T02:19:17.851Z,23.66
2023-04-10T02:20:17.901Z,23.61
2023-04-10T02:21:17.969Z,23.62
2023-04-10T02:22:18.073Z,23.67
2023-04-10T02:23:18.054Z,23.62
2023-04-10T02:24:18.092Z,23.67
2023-04-10T02:25:18.164Z,23.62
2023-04-10T02:26:18.182Z,23.65
2023-04-10T02:27:18.208Z,23.65
2023-04-10T02:28:18.238Z,23.67
2023-04-10T02:29:18.268Z,23.66
2023-04-10T02:30:18.333Z,23.65
2023-04-10T02:31:18.580Z,23.68
2023-04-10T02:32:18.522Z,23.62
2023-04-10T02:33:18.493Z,23.65
2023-04-10T02:34:18.520Z,23.66
2023-04-10T02:35:18.580Z,23.62
2023-04-10T02:36:18.604Z,23.59
2023-04-10T02:37:18.694Z,23.62
2023-04-10T02:38:18.698Z,23.66
2023-04-10T02:39:18.797Z,23.66
2023-04-10T02:40:18.811Z,23.66
2023-04-10T02:41:18.839Z,23.67
2023-04-10T02:42:18.883Z,23.69
2023-04-10T02:43:18.910Z,23.64
2023-04-10T02:44:18.943Z,23.66
2023-04-10T02:45:19.093Z,23.66
2023-04-10T02:46:19.091Z,23.69
2023-04-10T02:47:19.149Z,23.68
2023-04-10T02:48:19.192Z,23.66
2023-04-10T02:49:19.141Z,23.68
2023-04-10T02:50:19.219Z,23.68
2023-04-10T02:51:19.296Z,23.66
2023-04-10T02:52:19.309Z,23.66
2023-04-10T02:53:19.393Z,23.69
2023-04-10T02:54:19.381Z,23.69
2023-04-10T02:55:19.538Z,23.65
2023-04-10T02:56:19.516Z,23.68
2023-04-10T02:57:19.549Z,23.66
2023-04-10T02:58:19.555Z,23.66
2023-04-10T02:59:19.637Z,23.66
2023-04-10T03:00:19.663Z,23.62
2023-04-10T03:01:19.745Z,23.66
2023-04-10T03:02:19.738Z,23.69
2023-04-10T03:03:19.955Z,23.68
2023-04-10T03:04:19.975Z,23.70
2023-04-10T03:05:19.916Z,23.70
2023-04-10T03:06:19.936Z,23.66
2023-04-10T03:07:20.031Z,23.70
2023-04-10T03:08:20.026Z,23.73
2023-04-10T03:09:20.043Z,23.70
2023-04-10T03:10:20.091Z,23.68
2023-04-10T03:11:20.182Z,23.69
2023-04-10T03:12:20.157Z,23.66
2023-04-10T03:13:20.176Z,23.73
2023-04-10T03:14:20.355Z,23.72
2023-04-10T03:15:20.277Z,23.73
2023-04-10T03:16:20.381Z,23.70
2023-04-10T03:17:20.421Z,23.68
2023-04-10T03:18:20.409Z,23.71
2023-04-10T03:19:20.532Z,23.72
2023-04-10T03:20:20.523Z,23.69
2023-04-10T03:21:20.573Z,23.70
2023-04-10T03:22:20.600Z,23.73
2023-04-10T03:23:20.740Z,23.71
2023-04-10T03:24:20.678Z,23.73
2023-04-10T03:25:20.764Z,23.70
2023-04-10T03:26:20.842Z,23.66
2023-04-10T03:27:20.877Z,23.71
2023-04-10T03:28:20.850Z,23.71
2023-04-10T03:29:20.984Z,23.71
2023-04-10T03:30:21.018Z,23.71
2023-04-10T03:31:21.026Z,23.73
2023-04-10T03:32:21.097Z,23.71
2023-04-10T03:33:21.160Z,23.74
2023-04-10T03:34:21.197Z,23.73
2023-04-10T03:35:21.908Z,23.74
2023-04-10T03:36:21.268Z,23.74
2023-04-10T03:37:21.323Z,23.71
2023-04-10T03:38:21.373Z,23.68
2023-04-10T03:39:21.389Z,23.74
2023-04-10T03:40:21.496Z,23.71
2023-04-10T03:41:22.602Z,23.70
2023-04-10T03:42:21.492Z,23.75
2023-04-10T03:43:21.539Z,23.71
2023-04-10T03:44:21.664Z,23.74
2023-04-10T03:45:21.716Z,23.75
2023-04-10T03:46:21.702Z,23.74
2023-04-10T03:47:21.790Z,23.74
2023-04-10T03:48:21.840Z,23.72
2023-04-10T03:49:21.847Z,23.75
2023-04-10T03:50:21.859Z,23.75
2023-04-10T03:51:21.878Z,23.73
2023-04-10T03:52:21.977Z,23.71
2023-04-10T03:53:21.975Z,23.74
2023-04-10T03:54:22.085Z,23.74
2023-04-10T03:55:22.099Z,23.71
2023-04-10T03:56:22.166Z,23.78
2023-04-10T03:57:22.212Z,23.70
2023-04-10T03:58:22.210Z,23.74
2023-04-10T03:59:26.151Z,23.75
2023-04-10T04:00:23.249Z,23.78
2023-04-10T04:01:22.281Z,23.72
2023-04-10T04:02:22.344Z,23.72
2023-04-10T04:03:22.473Z,23.54
2023-04-10T04:04:22.359Z,23.57
2023-04-10T04:05:22.216Z,23.41
2023-04-10T04:06:22.212Z,23.44
2023-04-10T04:07:22.227Z,23.40
2023-04-10T04:08:22.199Z,23.36
2023-04-10T04:09:22.235Z,23.27
2023-04-10T04:10:22.202Z,23.32
2023-04-10T04:11:22.288Z,23.24
2023-04-10T04:12:22.304Z,23.16
2023-04-10T04:13:22.297Z,23.12
2023-04-10T04:14:22.315Z,23.06
2023-04-10T04:15:22.424Z,23.07
2023-04-10T04:16:22.477Z,23.04
2023-04-10T04:17:22.498Z,22.93
2023-04-10T04:18:22.511Z,22.95
2023-04-10T04:19:22.558Z,22.92
2023-04-10T04:20:22.577Z,22.86
2023-04-10T04:21:22.636Z,22.89
2023-04-10T04:22:22.682Z,22.81
2023-04-10T04:23:22.734Z,22.72
2023-04-10T04:24:22.798Z,22.75
2023-04-10T04:25:22.806Z,22.72
2023-04-10T04:26:22.864Z,22.65
2023-04-10T04:27:22.914Z,22.65
2023-04-10T04:28:22.939Z,22.62
2023-04-10T04:29:22.984Z,22.53
2023-04-10T04:30:23.057Z,22.54
2023-04-10T04:31:23.127Z,22.60
2023-04-10T04:32:23.233Z,22.54
2023-04-10T04:33:23.210Z,22.62
2023-04-10T04:34:23.267Z,22.63
2023-04-10T04:35:23.384Z,22.65
2023-04-10T04:36:23.405Z,22.65
2023-04-10T04:37:23.473Z,22.69
2023-04-10T04:38:23.611Z,22.71
2023-04-10T04:39:23.570Z,22.71
2023-04-10T04:40:23.629Z,22.68
2023-04-10T04:41:23.648Z,22.69
2023-04-10T04:42:23.732Z,22.74
2023-04-10T04:43:23.804Z,22.71
2023-04-10T04:44:23.872Z,22.78
2023-04-10T04:45:23.865Z,22.69
2023-04-10T04:46:24.061Z,22.72
2023-04-10T04:47:24.005Z,22.78
2023-04-10T04:48:24.091Z,22.77
2023-04-10T04:49:24.150Z,22.78
2023-04-10T04:50:24.173Z,22.74
2023-04-10T04:51:24.222Z,22.78
2023-04-10T04:52:24.294Z,22.80
2023-04-10T04:53:24.317Z,22.84
2023-04-10T04:54:24.432Z,22.84
2023-04-10T04:55:24.438Z,22.83
2023-04-10T04:56:24.473Z,22.78
2023-04-10T04:57:24.563Z,22.78
2023-04-10T04:58:24.657Z,22.77
2023-04-10T04:59:24.683Z,22.74
2023-04-10T05:00:24.730Z,22.80
2023-04-10T05:01:24.785Z,22.78
2023-04-10T05:02:24.974Z,22.76
2023-04-10T05:03:25.134Z,22.73
2023-04-10T05:04:25.143Z,22.81
2023-04-10T05:05:24.970Z,22.79
2023-04-10T05:06:47.058Z,22.76
2023-04-10T05:07:47.100Z,22.79
2023-04-10T05:08:47.049Z,22.70
2023-04-10T05:09:47.016Z,22.78
2023-04-10T05:10:46.966Z,22.75
2023-04-10T05:11:46.968Z,22.72
2023-04-10T05:12:46.999Z,22.72
2023-04-10T05:13:47.054Z,22.75
2023-04-10T05:14:46.993Z,22.72
2023-04-10T05:15:47.033Z,22.74
2023-04-10T05:16:46.971Z,22.70
2023-04-10T05:17:47.083Z,22.68
2023-04-10T05:18:47.078Z,22.71
2023-04-10T05:19:46.940Z,22.71
2023-04-10T05:20:46.936Z,22.64
2023-04-10T05:21:46.942Z,22.67
2023-04-10T05:22:46.957Z,22.65
2023-04-10T05:23:47.010Z,22.66
2023-04-10T05:24:46.917Z,22.58
2023-04-10T05:25:46.916Z,22.62
2023-04-10T05:26:46.916Z,22.63
2023-04-10T05:27:47.084Z,22.62
2023-04-10T05:28:47.034Z,22.63
2023-04-10T05:29:47.097Z,22.59
2023-04-10T05:30:47.226Z,22.56
2023-04-10T05:31:47.109Z,22.61
2023-04-10T05:32:47.278Z,22.53
2023-04-10T05:33:47.244Z,22.56
2023-04-10T05:34:47.284Z,22.54
2023-04-10T05:35:47.760Z,22.56
2023-04-10T05:36:47.350Z,22.52
2023-04-10T05:37:47.363Z,22.49
2023-04-10T05:38:47.370Z,22.51
2023-04-10T05:39:47.379Z,22.47
2023-04-10T05:40:47.387Z,22.44
2023-04-10T05:41:47.427Z,22.45
2023-04-10T05:42:47.500Z,22.45
2023-04-10T05:43:47.450Z,22.49
2023-04-10T05:44:47.528Z,22.41
2023-04-10T05:45:47.513Z,22.45
2023-04-10T05:46:47.504Z,22.40
2023-04-10T05:47:47.554Z,22.37
2023-04-10T05:48:47.535Z,22.39
2023-04-10T05:49:47.543Z,22.33
2023-04-10T05:50:47.518Z,22.38
2023-04-10T05:51:47.525Z,22.31
2023-04-10T05:52:47.577Z,22.31
2023-04-10T05:53:47.510Z,22.32
2023-04-10T05:54:47.514Z,22.33
2023-04-10T05:55:47.522Z,22.25
2023-04-10T05:56:47.564Z,22.25
2023-04-10T05:57:47.599Z,22.29
2023-04-10T05:58:47.657Z,22.21
2023-04-10T05:59:47.714Z,22.21
2023-04-10T06:00:47.764Z,22.17
2023-04-10T06:01:47.851Z,22.20
2023-04-10T06:02:47.990Z,22.16
2023-04-10T06:03:48.170Z,22.16
2023-04-10T06:04:48.094Z,22.14
2023-04-10T06:05:48.058Z,22.11
2023-04-10T06:06:48.113Z,22.09
2023-04-10T06:07:48.239Z,22.07
2023-04-10T06:08:48.219Z,22.06
2023-04-10T06:09:48.300Z,22.03
2023-04-10T06:10:48.317Z,22.06
2023-04-10T06:11:48.379Z,22.05
2023-04-10T06:12:48.351Z,22.05
2023-04-10T06:13:48.488Z,22.07
2023-04-10T06:14:48.478Z,22.00
2023-04-10T06:15:48.623Z,22.02
2023-04-10T06:16:48.539Z,21.97
2023-04-10T06:17:48.689Z,21.98
2023-04-10T06:18:48.607Z,22.01
2023-04-10T06:19:48.708Z,21.97
2023-04-10T06:20:48.679Z,21.96
2023-04-10T06:21:48.681Z,21.94
2023-04-10T06:22:48.682Z,21.96
2023-04-10T06:23:48.744Z,21.93
2023-04-10T06:24:48.747Z,21.93
2023-04-10T06:25:48.812Z,21.93
2023-04-10T06:26:48.759Z,21.92
2023-04-10T06:27:48.761Z,21.89
2023-04-10T06:28:48.761Z,21.94
2023-04-10T06:29:48.837Z,21.94
2023-04-10T06:30:48.836Z,21.91
2023-04-10T06:31:48.962Z,21.92
2023-04-10T06:32:48.898Z,21.97
2023-04-10T06:33:48.801Z,21.99
2023-04-10T06:34:48.815Z,21.93
2023-04-10T06:35:48.851Z,21.99
2023-04-10T06:36:48.840Z,21.99
2023-04-10T06:37:48.808Z,21.98
2023-04-10T06:38:48.925Z,21.96
2023-04-10T06:39:48.929Z,21.99
2023-04-10T06:40:48.933Z,21.95
2023-04-10T06:41:48.971Z,22.00
2023-04-10T06:42:48.973Z,21.97
2023-04-10T06:43:49.171Z,21.97
2023-04-10T06:44:49.132Z,22.04
2023-04-10T06:45:49.162Z,22.00
2023-04-10T06:46:49.264Z,22.00
2023-04-10T06:47:49.330Z,22.04
2023-04-10T06:48:49.391Z,22.02
2023-04-10T06:49:49.429Z,22.02
2023-04-10T06:50:49.505Z,22.02
2023-04-10T06:51:49.566Z,22.04
2023-04-10T06:52:49.626Z,22.07
2023-04-10T06:53:49.693Z,22.04
2023-04-10T06:54:49.758Z,22.10
2023-04-10T06:55:49.786Z,22.04
2023-04-10T06:56:49.785Z,22.02
2023-04-10T06:57:49.890Z,22.06
2023-04-10T06:58:49.896Z,22.02
2023-04-10T06:59:49.902Z,22.06
2023-04-10T07:00:50.067Z,22.07
2023-04-10T07:01:50.012Z,22.05
2023-04-10T07:02:50.067Z,22.00
2023-04-10T07:03:50.124Z,22.06
2023-04-10T07:04:50.120Z,22.05
2023-04-10T07:05:50.114Z,22.02
2023-04-10T07:06:50.181Z,22.05
2023-04-10T07:07:50.231Z,22.03
2023-04-10T07:08:50.296Z,22.04
2023-04-10T07:09:50.247Z,22.05
2023-04-10T07:10:50.283Z,22.06
2023-04-10T07:11:50.375Z,22.07
2023-04-10T07:12:50.365Z,22.02
2023-04-10T07:13:50.376Z,22.06
2023-04-10T07:14:50.426Z,22.06
2023-04-10T07:15:50.442Z,22.04
2023-04-10T07:16:50.528Z,22.12
2023-04-10T07:17:50.530Z,22.06
2023-04-10T07:18:50.509Z,22.06
2023-04-10T07:19:50.523Z,22.06
2023-04-10T07:20:50.528Z,22.10
2023-04-10T07:21:50.540Z,22.08
2023-04-10T07:22:50.574Z,22.11
2023-04-10T07:23:50.590Z,22.10
2023-04-10T07:24:50.595Z,22.13
2023-04-10T07:25:50.596Z,22.19
2023-04-10T07:26:50.606Z,22.13
2023-04-10T07:27:50.608Z,22.11
2023-04-10T07:28:50.615Z,22.13
2023-04-10T07:29:50.637Z,22.12
2023-04-10T07:30:50.607Z,22.12
2023-04-10T07:31:50.704Z,22.15
2023-04-10T07:32:50.864Z,22.09
2023-04-10T07:33:50.686Z,22.05
2023-04-10T07:34:50.619Z,22.07
2023-04-10T07:35:50.693Z,22.10
2023-04-10T07:36:50.646Z,22.10
2023-04-10T07:37:50.647Z,22.07
2023-04-10T07:38:50.646Z,22.10
2023-04-10T07:39:50.755Z,22.03
2023-04-10T07:40:50.768Z,22.06
2023-04-10T07:41:50.823Z,22.03
2023-04-10T07:42:52.057Z,22.03
2023-04-10T07:43:50.861Z,22.02
2023-04-10T07:44:50.837Z,21.97
2023-04-10T07:45:50.931Z,22.04
2023-04-10T07:46:50.843Z,22.02
2023-04-10T07:47:50.879Z,22.02
2023-04-10T07:48:50.861Z,21.96
2023-04-10T07:49:50.814Z,21.98
2023-04-10T07:50:50.833Z,22.04
2023-04-10T07:51:50.839Z,22.01
2023-04-10T07:52:50.845Z,22.01
2023-04-10T07:53:50.780Z,21.98
2023-04-10T07:54:50.804Z,22.05
2023-04-10T07:55:50.795Z,22.03
2023-04-10T07:56:50.771Z,22.01
2023-04-10T07:57:50.779Z,21.98
2023-04-10T07:58:50.783Z,22.00
2023-04-10T07:59:50.793Z,21.99
2023-04-10T08:00:50.743Z,21.99
2023-04-10T08:01:50.832Z,21.98
2023-04-10T08:02:50.895Z,21.99
2023-04-10T08:03:50.942Z,21.95
2023-04-10T08:04:50.845Z,21.93
2023-04-10T08:05:50.718Z,21.95
2023-04-10T08:06:50.732Z,21.92
2023-04-10T08:07:50.678Z,22.00
2023-04-10T08:08:50.689Z,21.91
2023-04-10T08:09:50.686Z,21.88
2023-04-10T08:10:50.660Z,21.93
2023-04-10T08:11:50.669Z,21.90
2023-04-10T08:12:50.668Z,21.91
2023-04-10T08:13:50.682Z,21.84
2023-04-10T08:14:50.752Z,21.87
2023-04-10T08:15:50.635Z,21.89
2023-04-10T08:16:50.713Z,21.87
2023-04-10T08:17:50.686Z,21.83
2023-04-10T08:18:50.619Z,21.89
2023-04-10T08:19:50.612Z,21.86
2023-04-10T08:20:50.622Z,21.89
2023-04-10T08:21:50.674Z,21.83
2023-04-10T08:22:50.568Z,21.83
2023-04-10T08:23:50.574Z,21.79
2023-04-10T08:24:50.654Z,21.82
2023-04-10T08:25:50.553Z,21.79
2023-04-10T08:26:50.564Z,21.82
2023-04-10T08:27:50.562Z,21.81
2023-04-10T08:28:50.585Z,21.78
2023-04-10T08:29:50.586Z,21.78
2023-04-10T08:30:50.541Z,21.77
2023-04-10T08:31:50.615Z,21.77
2023-04-10T08:32:50.552Z,21.74
2023-04-10T08:33:50.507Z,21.73
2023-04-10T08:34:50.527Z,21.71
2023-04-10T08:35:50.539Z,21.75
2023-04-10T08:36:50.527Z,21.73
2023-04-10T08:38:07.779Z,21.77
2023-04-10T08:38:51.482Z,21.78
2023-04-10T08:39:50.587Z,21.75
2023-04-10T08:40:50.466Z,21.79
2023-04-10T08:41:50.508Z,21.81
2023-04-10T08:42:50.478Z,21.78
2023-04-10T08:43:50.404Z,21.78
2023-04-10T08:44:50.422Z,21.73
2023-04-10T08:45:50.446Z,21.75
2023-04-10T08:46:50.432Z,21.75
2023-04-10T08:47:50.487Z,21.76
2023-04-10T08:48:50.403Z,21.78
2023-04-10T08:49:50.411Z,21.83
2023-04-10T08:50:50.420Z,21.83
2023-04-10T08:51:50.418Z,21.78
2023-04-10T08:52:50.445Z,21.78
2023-04-10T08:53:50.383Z,21.80
2023-04-10T08:54:50.373Z,21.77
2023-04-10T08:55:50.395Z,21.81
2023-04-10T08:56:50.357Z,21.80
2023-04-10T08:58:50.420Z,21.78
2023-04-10T08:59:50.484Z,21.76
2023-04-10T09:00:50.524Z,21.74
2023-04-10T09:01:50.708Z,21.77
2023-04-10T09:02:50.782Z,21.76
2023-04-10T09:03:50.761Z,21.80
2023-04-10T09:04:50.804Z,21.76
2023-04-10T09:05:50.775Z,21.76
2023-04-10T09:06:50.837Z,21.74
2023-04-10T09:07:50.947Z,21.72
2023-04-10T09:08:50.964Z,21.73
2023-04-10T09:09:51.008Z,21.75
2023-04-10T09:10:51.084Z,21.76
2023-04-10T09:11:51.097Z,21.73
2023-04-10T09:12:51.205Z,21.75
2023-04-10T09:13:51.306Z,21.73
2023-04-10T09:14:51.274Z,21.74
2023-04-10T09:15:51.365Z,21.70
2023-04-10T09:16:51.438Z,21.77
2023-04-10T09:17:51.491Z,21.78
2023-04-10T09:18:51.605Z,21.77
2023-04-10T09:19:51.542Z,21.74
2023-04-10T09:20:51.602Z,21.77
2023-04-10T09:21:51.652Z,21.77
2023-04-10T09:22:51.705Z,21.78
2023-04-10T09:23:51.721Z,21.74
2023-04-10T09:24:51.775Z,21.80
2023-04-10T09:25:51.868Z,21.81
2023-04-10T09:26:51.889Z,21.84
2023-04-10T09:27:51.897Z,21.83
2023-04-10T09:28:51.938Z,21.77
2023-04-10T09:29:51.997Z,21.83
2023-04-10T09:30:52.037Z,21.87
2023-04-10T09:31:52.064Z,21.80
2023-04-10T09:32:52.117Z,21.84
2023-04-10T09:33:52.265Z,21.90
2023-04-10T09:34:52.208Z,21.84
2023-04-10T09:35:52.261Z,21.90
2023-04-10T09:36:52.312Z,21.89
2023-04-10T09:37:52.305Z,21.90
2023-04-10T09:38:52.392Z,21.87
2023-04-10T09:39:52.422Z,21.88
2023-04-10T09:40:53.763Z,21.90
2023-04-10T09:41:52.532Z,21.93
2023-04-10T09:42:52.559Z,21.94
2023-04-10T09:43:52.555Z,21.97
2023-04-10T09:44:52.607Z,22.02
2023-04-10T09:45:52.675Z,21.99
2023-04-10T09:46:52.798Z,21.97
2023-04-10T09:47:52.776Z,22.00
2023-04-10T09:48:52.681Z,22.01
2023-04-10T09:49:52.759Z,22.00
2023-04-10T09:50:52.746Z,22.00
2023-04-10T09:51:52.710Z,22.05
2023-04-10T09:52:52.709Z,22.04
2023-04-10T09:53:53.125Z,22.04
2023-04-10T09:54:52.743Z,22.12
2023-04-10T09:55:52.734Z,22.12
2023-04-10T09:56:52.707Z,22.15
2023-04-10T09:57:52.767Z,22.15
2023-04-10T09:58:52.906Z,22.07
2023-04-10T09:59:52.757Z,22.21
2023-04-10T10:00:52.736Z,22.16
2023-04-10T10:01:52.869Z,22.19
2023-04-10T10:02:52.897Z,22.20
2023-04-10T10:03:52.784Z,22.20
2023-04-10T10:04:52.787Z,22.19
2023-04-10T10:05:52.773Z,22.26
2023-04-10T10:06:52.812Z,22.28
2023-04-10T10:07:52.714Z,22.32
2023-04-10T10:08:52.986Z,22.32
2023-04-10T10:09:52.738Z,22.29
2023-04-10T10:10:52.758Z,22.35
2023-04-10T10:11:52.761Z,22.37
2023-04-10T10:12:52.761Z,22.32
2023-04-10T10:13:52.743Z,22.38
2023-04-10T10:14:52.761Z,22.44
2023-04-10T10:15:52.820Z,22.39
2023-04-10T10:16:52.773Z,22.38
2023-04-10T10:17:52.802Z,22.42
2023-04-10T10:18:53.007Z,22.45
2023-04-10T10:19:52.779Z,22.47
2023-04-10T10:20:52.775Z,22.42
2023-04-10T10:21:52.904Z,22.42
2023-04-10T10:22:52.813Z,22.48
2023-04-10T10:23:52.851Z,22.51
2023-04-10T10:24:52.811Z,22.51
2023-04-10T10:25:52.831Z,22.56
2023-04-10T10:26:52.843Z,22.51
2023-04-10T10:27:52.803Z,22.54
2023-04-10T10:29:52.841Z,22.51
2023-04-10T10:30:52.889Z,22.63
2023-04-10T10:31:53.132Z,22.60
2023-04-10T10:32:52.873Z,22.61
2023-04-10T10:33:52.962Z,22.61
2023-04-10T10:34:52.902Z,22.63
2023-04-10T10:35:52.870Z,22.65
2023-04-10T10:36:52.890Z,22.62
2023-04-10T10:37:52.931Z,22.67
2023-04-10T10:38:53.100Z,22.62
2023-04-10T10:39:52.890Z,22.72
2023-04-10T10:40:52.957Z,22.64
2023-04-10T10:41:52.945Z,22.67
2023-04-10T10:42:52.944Z,22.65
2023-04-10T10:43:53.067Z,22.64
2023-04-10T10:44:52.953Z,22.64
2023-04-10T10:45:53.001Z,22.68
2023-04-10T10:46:52.969Z,22.68
2023-04-10T10:47:53.041Z,22.68
2023-04-10T10:48:53.302Z,22.62
2023-04-10T10:49:53.100Z,22.70
2023-04-10T10:50:53.017Z,22.67
2023-04-10T10:51:53.015Z,22.67
2023-04-10T10:52:53.045Z,22.74
2023-04-10T10:53:53.056Z,22.67
2023-04-10T10:54:59.456Z,22.70
2023-04-10T10:55:54.037Z,22.68
2023-04-10T10:56:53.052Z,22.68
2023-04-10T10:57:53.162Z,22.70
2023-04-10T10:58:53.529Z,22.73
2023-04-10T10:59:53.050Z,22.68
2023-04-10T11:00:53.450Z,22.70
2023-04-10T11:01:53.304Z,22.67
2023-04-10T11:02:53.151Z,22.68
2023-04-10T11:03:53.109Z,22.73
2023-04-10T11:04:52.993Z,22.67
2023-04-10T11:05:53.011Z,22.70
2023-04-10T11:06:52.983Z,22.72
2023-04-10T11:07:52.983Z,22.70
2023-04-10T11:08:53.714Z,22.70
2023-04-10T11:09:53.057Z,22.68
2023-04-10T11:10:53.017Z,22.65
2023-04-10T11:11:52.967Z,22.72
2023-04-10T11:12:53.027Z,22.67
2023-04-10T11:13:53.074Z,22.72
2023-04-10T11:14:52.925Z,22.72
2023-04-10T11:15:52.940Z,22.70
2023-04-10T11:16:52.991Z,22.67
2023-04-10T11:17:53.026Z,22.68
2023-04-10T11:19:02.768Z,22.72
2023-04-10T11:19:53.921Z,22.70
2023-04-10T11:20:52.928Z,22.71
2023-04-10T11:21:52.941Z,22.76
2023-04-10T11:22:53.025Z,22.68
2023-04-10T11:23:52.941Z,22.68
2023-04-10T11:24:52.918Z,22.69
2023-04-10T11:25:52.930Z,22.65
2023-04-10T11:26:52.868Z,22.71
2023-04-10T11:27:52.924Z,22.67
2023-04-10T11:28:53.181Z,22.65
2023-04-10T11:29:52.860Z,22.68
2023-04-10T11:30:52.896Z,22.72
2023-04-10T11:31:53.044Z,22.70
2023-04-10T11:32:52.884Z,22.71
2023-04-10T11:33:52.852Z,22.66
2023-04-10T11:34:52.862Z,22.66
2023-04-10T11:35:53.042Z,22.72
2023-04-10T11:36:52.915Z,22.71
2023-04-10T11:37:52.879Z,22.65
2023-04-10T11:38:52.980Z,22.71
2023-04-10T11:39:53.030Z,22.66
2023-04-10T11:40:53.029Z,22.63
2023-04-10T11:41:53.082Z,22.57
2023-04-10T11:42:53.012Z,22.57
2023-04-10T11:43:53.068Z,22.56
2023-04-10T11:44:53.168Z,22.48
2023-04-10T11:45:53.151Z,22.50
2023-04-10T11:46:53.182Z,22.42
2023-04-10T11:47:53.241Z,22.43
2023-04-10T11:48:53.415Z,22.34
2023-04-10T11:49:53.368Z,22.39
2023-04-10T11:50:53.239Z,22.38
2023-04-10T11:51:53.299Z,22.38
2023-04-10T11:52:54.613Z,22.36
2023-04-10T11:53:53.387Z,22.33
2023-04-10T11:54:53.356Z,22.30
2023-04-10T11:55:53.444Z,22.30
2023-04-10T11:56:53.564Z,22.31
2023-04-10T11:57:53.489Z,22.25
2023-04-10T11:58:53.773Z,22.24
2023-04-10T11:59:53.555Z,22.25
2023-04-10T12:00:53.595Z,22.21
2023-04-10T12:01:53.656Z,22.21
2023-04-10T12:02:53.772Z,22.16
2023-04-10T12:03:53.785Z,22.13
2023-04-10T12:04:53.737Z,22.16
2023-04-10T12:05:53.724Z,22.13
2023-04-10T12:06:53.797Z,22.11
2023-04-10T12:07:53.858Z,22.07
2023-04-10T12:08:54.279Z,22.11
2023-04-10T12:09:53.849Z,22.10
2023-04-10T12:10:53.886Z,22.07
2023-04-10T12:11:53.970Z,22.04
2023-04-10T12:12:53.984Z,22.04
2023-04-10T12:13:54.080Z,21.97
2023-04-10T12:14:54.081Z,21.97
2023-04-10T12:15:54.127Z,22.00
2023-04-10T12:16:54.131Z,21.91
2023-04-10T12:17:54.304Z,21.95
2023-04-10T12:18:54.525Z,21.96
2023-04-10T12:19:54.292Z,21.89
2023-04-10T12:20:54.301Z,21.90
2023-04-10T12:21:54.337Z,21.87
2023-04-10T12:22:54.453Z,21.89
2023-04-10T12:23:54.470Z,21.86
2023-04-10T12:24:54.481Z,21.87
2023-04-10T12:25:54.474Z,21.84
2023-04-10T12:26:54.472Z,21.83
2023-04-10T12:27:54.564Z,21.81
2023-04-10T12:28:54.984Z,21.78
2023-04-10T12:29:54.701Z,21.78
2023-04-10T12:30:54.722Z,21.72
2023-04-10T12:31:54.718Z,21.75
2023-04-10T12:32:55.498Z,21.72
2023-04-10T12:33:54.839Z,21.69
2023-04-10T12:34:54.843Z,21.70
2023-04-10T12:35:54.968Z,21.70
2023-04-10T12:36:54.917Z,21.66
2023-04-10T12:37:54.988Z,21.69
2023-04-10T12:38:55.148Z,21.64
2023-04-10T12:39:55.093Z,21.64
2023-04-10T12:40:55.182Z,21.61
2023-04-10T12:41:55.132Z,21.62
2023-04-10T12:42:55.205Z,21.57
2023-04-10T12:43:55.226Z,21.57
2023-04-10T12:44:55.295Z,21.57
2023-04-10T12:45:56.344Z,21.57
2023-04-10T12:46:55.472Z,21.57
2023-04-10T12:47:55.497Z,21.51
2023-04-10T12:48:55.675Z,21.51
2023-04-10T12:49:55.489Z,21.52
2023-04-10T12:50:55.514Z,21.51
2023-04-10T12:51:55.574Z,21.46
2023-04-10T12:52:55.596Z,21.48
2023-04-10T12:53:55.661Z,21.46
2023-04-10T12:54:55.775Z,21.46